createdAt,value
2018-12-02T00:03:01.612Z,97.900391
2018-12-02T00:06:29.489Z,97.900391
2018-12-02T00:09:57.351Z,97.900391
2018-12-02T00:13:25.222Z,97.796631
2018-12-02T00:16:53.079Z,97.692871
2018-12-02T00:20:20.927Z,97.589111
2018-12-02T00:23:49.770Z,97.485352
2018-12-02T00:27:17.624Z,97.485352
2018-12-02T00:30:46.457Z,97.381592
2018-12-02T00:34:14.317Z,97.277832
2018-12-02T00:37:42.175Z,97.174072
2018-12-02T00:41:10.003Z,97.070312
2018-12-02T00:44:37.867Z,97.070312
2018-12-02T00:48:05.733Z,97.070312
2018-12-02T00:51:33.576Z,97.070312
2018-12-02T00:55:02.131Z,96.966553
2018-12-02T00:58:29.986Z,97.070312
2018-12-02T01:01:57.833Z,97.070312
2018-12-02T01:05:25.688Z,97.070312
2018-12-02T01:08:53.546Z,97.174072
2018-12-02T01:12:22.397Z,97.070312
2018-12-02T01:15:50.242Z,97.070312
2018-12-02T01:19:18.101Z,97.174072
2018-12-02T01:22:45.951Z,97.070312
2018-12-02T01:26:13.792Z,97.070312
2018-12-02T01:29:41.632Z,97.174072
2018-12-02T01:33:10.485Z,97.381592
2018-12-02T01:36:38.337Z,97.485352
2018-12-02T01:40:06.192Z,97.485352
2018-12-02T01:43:34.052Z,97.381592
2018-12-02T01:47:01.889Z,97.277832
2018-12-02T01:50:29.751Z,97.277832
2018-12-02T01:53:58.609Z,97.277832
2018-12-02T01:57:26.459Z,97.381592
2018-12-02T02:00:55.314Z,97.381592
2018-12-02T02:04:23.174Z,97.381592
2018-12-02T02:07:51.035Z,97.485352
2018-12-02T02:11:19.861Z,97.277832
2018-12-02T02:14:47.723Z,97.381592
2018-12-02T02:18:15.577Z,97.174072
2018-12-02T02:21:43.424Z,97.174072
2018-12-02T02:25:11.275Z,97.070312
2018-12-02T02:28:39.125Z,97.174072
2018-12-02T02:32:06.962Z,97.174072
2018-12-02T02:35:34.821Z,97.277832
2018-12-02T02:39:02.674Z,97.174072
2018-12-02T02:42:31.511Z,96.966553
2018-12-02T02:45:59.367Z,97.070312
2018-12-02T02:49:27.222Z,97.174072
2018-12-02T02:52:55.061Z,97.070312
2018-12-02T02:56:23.018Z,97.070312
2018-12-02T02:59:50.862Z,96.966553
2018-12-02T03:03:18.718Z,96.862793
2018-12-02T03:06:46.555Z,96.759033
2018-12-02T03:10:14.414Z,96.759033
2018-12-02T03:13:43.259Z,96.716309
2018-12-02T03:17:11.102Z,96.508789
2018-12-02T03:20:38.961Z,96.508789
2018-12-02T03:24:06.813Z,96.30127
2018-12-02T03:27:34.655Z,96.19751
2018-12-02T03:31:02.525Z,96.19751
2018-12-02T03:34:30.364Z,96.405029
2018-12-02T03:37:58.215Z,96.30127
2018-12-02T03:41:26.070Z,96.09375
2018-12-02T03:44:53.928Z,95.88623
2018-12-02T03:48:21.785Z,95.98999
2018-12-02T03:51:49.633Z,95.88623
2018-12-02T03:55:17.494Z,95.782471
2018-12-02T03:58:45.351Z,95.678711
2018-12-02T04:02:13.189Z,95.678711
2018-12-02T04:05:41.039Z,95.574951
2018-12-02T04:09:08.893Z,95.471191
2018-12-02T04:12:36.799Z,95.367432
2018-12-02T04:16:04.655Z,95.263672
2018-12-02T04:19:32.499Z,95.367432
2018-12-02T04:23:00.353Z,95.428467
2018-12-02T04:26:28.202Z,95.532227
2018-12-02T04:29:56.066Z,95.324707
2018-12-02T04:33:23.921Z,95.324707
2018-12-02T04:36:51.758Z,95.117188
2018-12-02T04:40:19.621Z,95.013428
2018-12-02T04:43:47.487Z,95.013428
2018-12-02T04:47:15.324Z,95.013428
2018-12-02T04:50:43.182Z,95.013428
2018-12-02T04:54:11.036Z,95.013428
2018-12-02T04:57:38.887Z,95.013428
2018-12-02T05:01:08.728Z,95.013428
2018-12-02T05:04:36.581Z,94.702148
2018-12-02T05:08:04.437Z,94.702148
2018-12-02T05:11:32.289Z,94.702148
2018-12-02T05:15:00.147Z,94.702148
2018-12-02T05:18:28.008Z,94.659424
2018-12-02T05:21:55.846Z,94.451904
2018-12-02T05:25:24.703Z,94.555664
2018-12-02T05:28:52.554Z,94.348145
2018-12-02T05:32:20.395Z,94.140625
2018-12-02T05:35:48.252Z,94.348145
2018-12-02T05:39:16.180Z,94.348145
2018-12-02T05:42:44.030Z,94.451904
2018-12-02T05:46:11.887Z,94.451904
2018-12-02T05:49:39.742Z,94.348145
2018-12-02T05:53:07.603Z,94.348145
2018-12-02T05:56:35.446Z,94.451904
2018-12-02T06:00:03.298Z,94.659424
2018-12-02T06:03:31.153Z,94.555664
2018-12-02T06:06:58.997Z,94.659424
2018-12-02T06:10:27.857Z,94.659424
2018-12-02T06:13:55.702Z,94.659424
2018-12-02T06:17:23.545Z,94.555664
2018-12-02T06:20:54.609Z,94.659424
2018-12-02T06:24:23.237Z,94.555664
2018-12-02T06:27:51.096Z,94.451904
2018-12-02T06:31:18.946Z,94.451904
2018-12-02T06:34:46.795Z,94.555664
2018-12-02T06:38:14.658Z,94.348145
2018-12-02T06:41:42.511Z,94.348145
2018-12-02T06:45:10.386Z,94.348145
2018-12-02T06:48:38.265Z,94.244385
2018-12-02T06:52:06.109Z,94.348145
2018-12-02T06:55:33.971Z,94.348145
2018-12-02T06:59:01.824Z,94.451904
2018-12-02T07:02:29.668Z,94.40918
2018-12-02T07:05:57.575Z,94.244385
2018-12-02T07:09:26.494Z,94.244385
2018-12-02T07:12:55.467Z,94.659424
2018-12-02T07:16:23.330Z,94.451904
2018-12-02T07:19:52.179Z,94.659424
2018-12-02T07:23:20.096Z,94.555664
2018-12-02T07:32:50.399Z,94.512939
2018-12-02T07:36:18.259Z,94.20166
2018-12-02T07:39:47.104Z,94.30542
2018-12-02T07:43:14.966Z,93.994141
2018-12-02T07:46:42.802Z,94.0979
2018-12-02T07:50:10.660Z,93.890381
2018-12-02T07:53:38.512Z,93.994141
2018-12-02T07:57:06.352Z,93.682861
2018-12-02T08:00:35.195Z,93.682861
2018-12-02T08:04:03.058Z,93.579102
2018-12-02T08:07:30.899Z,93.475342
2018-12-02T08:10:59.570Z,93.371582
2018-12-02T08:14:26.597Z,93.328857
2018-12-02T08:17:54.438Z,93.017578
2018-12-02T08:21:22.298Z,93.017578
2018-12-02T08:24:50.163Z,93.017578
2018-12-02T08:28:18.993Z,92.913818
2018-12-02T08:31:47.842Z,92.913818
2018-12-02T08:35:15.704Z,92.810059
2018-12-02T08:38:44.555Z,92.712402
2018-12-02T08:42:13.395Z,92.504883
2018-12-02T08:45:41.251Z,92.504883
2018-12-02T08:49:09.101Z,92.297363
2018-12-02T08:52:36.948Z,92.608643
2018-12-02T08:56:04.807Z,92.401123
2018-12-02T08:59:32.663Z,92.089844
2018-12-02T09:03:00.504Z,92.193604
2018-12-02T09:06:28.411Z,92.089844
2018-12-02T09:09:59.571Z,91.778564
2018-12-02T09:13:26.114Z,92.047119
2018-12-02T09:16:53.960Z,91.943359
2018-12-02T09:20:21.814Z,91.73584
2018-12-02T09:23:50.662Z,91.73584
2018-12-02T09:27:18.502Z,91.381836
2018-12-02T09:30:46.361Z,91.070557
2018-12-02T09:34:14.223Z,90.765381
2018-12-02T09:37:42.072Z,90.100098
2018-12-02T09:41:09.931Z,89.996338
2018-12-02T09:44:37.787Z,89.587402
2018-12-02T09:48:05.839Z,89.685059
2018-12-02T09:51:33.684Z,89.892578
2018-12-02T09:55:01.545Z,89.587402
2018-12-02T09:58:29.422Z,89.483643
2018-12-02T10:01:57.265Z,89.276123
2018-12-02T10:05:26.119Z,89.233398
2018-12-02T10:08:53.972Z,88.922119
2018-12-02T10:12:21.823Z,88.818359
2018-12-02T10:15:49.683Z,88.61084
2018-12-02T10:19:17.540Z,88.7146
2018-12-02T10:22:45.381Z,88.366699
2018-12-02T10:26:13.233Z,88.262939
2018-12-02T10:29:41.090Z,88.05542
2018-12-02T10:33:09.941Z,88.05542
2018-12-02T10:36:37.779Z,88.05542
2018-12-02T10:40:05.641Z,87.39624
2018-12-02T10:43:33.549Z,87.084961
2018-12-02T10:47:01.394Z,86.572266
2018-12-02T10:50:29.253Z,86.633301
2018-12-02T10:53:57.119Z,85.809326
2018-12-02T10:57:26.438Z,85.394287
2018-12-02T11:00:55.293Z,85.870361
2018-12-02T11:04:23.151Z,85.357666
2018-12-02T11:07:51.016Z,85.461426
2018-12-02T11:11:18.894Z,84.741211
2018-12-02T11:14:46.769Z,84.838867
2018-12-02T11:18:14.612Z,85.357666
2018-12-02T11:21:42.496Z,84.838867
2018-12-02T11:25:10.361Z,85.150146
2018-12-02T11:28:39.230Z,85.150146
2018-12-02T11:32:08.064Z,84.881592
2018-12-02T11:35:35.949Z,84.985352
2018-12-02T11:39:03.822Z,85.192871
2018-12-02T11:42:31.697Z,85.394287
2018-12-02T11:45:59.570Z,85.601807
2018-12-02T11:49:27.540Z,85.809326
2018-12-02T11:52:55.409Z,85.498047
2018-12-02T11:56:23.289Z,85.498047
2018-12-02T11:59:51.280Z,85.498047
2018-12-02T12:03:19.130Z,85.809326
2018-12-02T12:06:46.985Z,85.705566
2018-12-02T12:10:14.874Z,85.601807
2018-12-02T12:13:42.726Z,85.913086
2018-12-02T12:17:10.585Z,86.94458
2018-12-02T12:20:38.446Z,87.188721
2018-12-02T12:24:06.283Z,87.811279
2018-12-02T12:27:35.145Z,88.946533
2018-12-02T12:31:03.992Z,89.562988
2018-12-02T12:34:31.845Z,90.386963
2018-12-02T12:37:59.746Z,90.386963
2018-12-02T12:41:27.611Z,90.533447
2018-12-02T12:44:55.486Z,91.564941
2018-12-02T12:48:23.353Z,92.39502
2018-12-02T12:51:51.224Z,92.541504
2018-12-02T12:55:20.851Z,92.74292
2018-12-02T12:58:48.702Z,92.950439
2018-12-02T13:02:16.557Z,93.469238
2018-12-02T13:05:44.451Z,94.543457
2018-12-02T13:09:12.305Z,95.269775
2018-12-02T13:12:40.161Z,95.678711
2018-12-02T13:16:08.035Z,96.09375
2018-12-02T13:19:35.890Z,96.405029
2018-12-02T13:23:04.804Z,96.508789
2018-12-02T13:26:33.666Z,96.508789
2018-12-02T13:30:02.609Z,96.508789
2018-12-02T13:33:30.470Z,96.862793
2018-12-02T13:36:58.337Z,96.759033
2018-12-02T13:40:28.205Z,97.070312
2018-12-02T13:43:56.106Z,97.277832
2018-12-02T13:47:24.018Z,97.485352
2018-12-02T13:50:51.882Z,97.589111
2018-12-02T13:54:19.730Z,97.485352
2018-12-02T13:57:47.615Z,97.790527
2018-12-02T14:01:16.551Z,97.686768
2018-12-02T14:04:44.553Z,97.894287
2018-12-02T14:08:15.054Z,97.894287
2018-12-02T14:12:00.585Z,97.998047
2018-12-02T14:15:28.433Z,98.309326
2018-12-02T14:18:56.301Z,98.413086
2018-12-02T14:22:24.177Z,98.724365
2018-12-02T14:25:52.037Z,98.724365
2018-12-02T14:29:19.902Z,99.035645
2018-12-02T14:32:47.777Z,99.243164
2018-12-02T14:36:15.645Z,99.34082
2018-12-02T14:39:43.493Z,99.54834
2018-12-02T14:43:11.379Z,99.54834
2018-12-02T14:46:40.279Z,99.6521
2018-12-02T14:50:08.148Z,99.6521
2018-12-02T14:53:36.047Z,99.859619
2018-12-02T14:57:04.901Z,99.963379
2018-12-02T15:00:33.014Z,99.993896
2018-12-02T15:04:00.862Z,99.993896
2018-12-02T15:07:28.738Z,99.993896
2018-12-02T15:10:56.596Z,99.993896
2018-12-02T15:14:24.442Z,99.993896
2018-12-02T15:17:52.327Z,99.993896
2018-12-02T15:21:20.187Z,99.993896
2018-12-02T15:24:48.049Z,99.993896
2018-12-02T15:28:15.921Z,99.993896
2018-12-02T15:31:43.794Z,99.993896
2018-12-02T15:35:11.654Z,99.993896
2018-12-02T15:38:39.528Z,99.993896
2018-12-02T15:42:07.390Z,99.993896
2018-12-02T15:45:35.263Z,99.993896
2018-12-02T15:49:03.296Z,99.993896
2018-12-02T15:52:31.178Z,99.993896
2018-12-02T15:55:59.066Z,99.993896
2018-12-02T15:59:26.926Z,99.993896
2018-12-02T16:02:54.788Z,99.993896
2018-12-02T16:06:22.674Z,99.993896
2018-12-02T16:09:50.567Z,99.993896
2018-12-02T16:13:18.411Z,99.993896
2018-12-02T16:16:46.281Z,99.993896
2018-12-02T16:20:16.131Z,99.993896
2018-12-02T16:23:44.022Z,99.993896
2018-12-02T16:27:11.913Z,99.993896
2018-12-02T16:30:40.770Z,99.993896
2018-12-02T16:34:09.683Z,99.993896
2018-12-02T16:37:37.567Z,99.993896
2018-12-02T16:41:06.380Z,99.993896
2018-12-02T16:44:34.475Z,99.993896
2018-12-02T16:48:02.437Z,99.993896
2018-12-02T16:51:30.395Z,99.993896
2018-12-02T16:54:58.293Z,99.993896
2018-12-02T16:58:26.175Z,99.993896
2018-12-02T17:01:55.236Z,99.993896
2018-12-02T17:05:25.092Z,99.993896
2018-12-02T17:08:52.963Z,99.993896
2018-12-02T17:12:22.423Z,99.993896
2018-12-02T17:15:49.526Z,99.993896
2018-12-02T17:19:17.407Z,99.993896
2018-12-02T17:22:46.265Z,99.993896
2018-12-02T17:26:14.152Z,99.993896
2018-12-02T17:29:41.992Z,99.993896
2018-12-02T17:33:11.001Z,99.993896
2018-12-02T17:36:38.862Z,99.993896
2018-12-02T17:40:06.743Z,99.993896
2018-12-02T17:43:34.618Z,99.993896
2018-12-02T17:47:02.612Z,99.993896
2018-12-02T17:50:30.482Z,99.993896
2018-12-02T17:53:58.414Z,99.993896
2018-12-02T17:57:26.318Z,99.993896
2018-12-02T18:00:54.609Z,99.993896
2018-12-02T18:04:22.521Z,99.993896
2018-12-02T18:07:50.416Z,99.993896
2018-12-02T18:11:18.278Z,99.993896
2018-12-02T18:14:46.123Z,99.993896
2018-12-02T18:18:13.981Z,99.993896
2018-12-02T18:21:41.847Z,99.993896
2018-12-02T18:25:09.700Z,99.993896
2018-12-02T18:28:37.586Z,99.993896
2018-12-02T18:32:05.813Z,99.993896
2018-12-02T18:35:33.661Z,99.993896
2018-12-02T18:39:01.554Z,99.993896
2018-12-02T18:42:29.421Z,99.993896
2018-12-02T18:45:57.306Z,99.993896
2018-12-02T18:49:25.163Z,99.993896
2018-12-02T18:52:53.028Z,99.993896
2018-12-02T18:56:20.923Z,99.993896
2018-12-02T18:59:49.781Z,99.993896
2018-12-02T19:03:17.659Z,99.993896
2018-12-02T19:06:45.517Z,99.993896
2018-12-02T19:10:13.393Z,99.993896
2018-12-02T19:13:43.655Z,99.993896
2018-12-02T19:17:11.233Z,99.993896
2018-12-02T19:20:39.168Z,99.993896
2018-12-02T19:24:07.136Z,99.993896
2018-12-02T19:27:36.464Z,99.993896
2018-12-02T19:31:04.775Z,99.993896
2018-12-02T19:34:32.774Z,99.993896
2018-12-02T19:38:00.781Z,99.993896
2018-12-02T19:41:28.992Z,99.993896
2018-12-02T19:45:02.621Z,99.993896
2018-12-02T19:48:34.649Z,99.993896
2018-12-02T19:52:02.619Z,99.993896
2018-12-02T19:55:30.671Z,99.993896
2018-12-02T19:58:58.728Z,99.993896
2018-12-02T20:02:26.575Z,99.993896
2018-12-02T20:05:54.534Z,99.993896
2018-12-02T20:09:23.526Z,99.993896
2018-12-02T20:12:51.477Z,99.993896
2018-12-02T20:16:19.389Z,99.993896
2018-12-02T20:19:48.274Z,99.993896
2018-12-02T20:23:16.230Z,99.993896
2018-12-02T20:26:44.215Z,99.993896
2018-12-02T20:30:12.091Z,99.993896
2018-12-02T20:33:39.953Z,99.993896
2018-12-02T20:37:07.808Z,99.993896
2018-12-02T20:40:35.767Z,99.993896
2018-12-02T20:44:03.737Z,99.993896
2018-12-02T20:47:31.599Z,99.993896
2018-12-02T20:50:59.463Z,99.993896
2018-12-02T20:54:27.330Z,99.993896
2018-12-02T20:57:56.119Z,99.993896
2018-12-02T21:01:24.308Z,99.993896
2018-12-02T21:04:52.328Z,99.993896
2018-12-02T21:08:20.299Z,99.993896
2018-12-02T21:11:48.141Z,99.993896
2018-12-02T21:15:15.995Z,99.993896
2018-12-02T21:18:43.859Z,99.993896
2018-12-02T21:22:11.701Z,99.993896
2018-12-02T21:25:39.559Z,99.993896
2018-12-02T21:29:07.440Z,99.993896
2018-12-02T21:32:35.283Z,99.993896
2018-12-02T21:36:03.149Z,99.993896
2018-12-02T21:39:31.009Z,99.993896
2018-12-02T21:42:58.855Z,99.993896
2018-12-02T21:46:26.748Z,99.993896
2018-12-02T21:49:54.606Z,99.993896
2018-12-02T21:53:23.457Z,99.993896
2018-12-02T21:56:51.316Z,99.993896
2018-12-02T22:00:19.176Z,99.993896
2018-12-02T22:03:47.034Z,99.993896
2018-12-02T22:07:14.876Z,99.993896
2018-12-02T22:10:42.738Z,99.993896
2018-12-02T22:14:10.600Z,99.993896
2018-12-02T22:17:38.557Z,99.993896
2018-12-02T22:21:06.420Z,99.993896
2018-12-02T22:24:34.274Z,99.993896
2018-12-02T22:28:02.116Z,99.993896
2018-12-02T22:31:29.971Z,99.993896
2018-12-02T22:34:57.831Z,99.993896
2018-12-02T22:38:25.666Z,99.993896
2018-12-02T22:41:53.525Z,99.993896
2018-12-02T22:45:21.382Z,99.993896
2018-12-02T22:48:49.236Z,99.993896
2018-12-02T22:52:17.084Z,99.993896
2018-12-02T22:55:44.945Z,99.993896
2018-12-02T22:59:12.803Z,99.993896
2018-12-02T23:02:40.651Z,99.993896
2018-12-02T23:06:08.508Z,99.993896
2018-12-02T23:09:36.367Z,99.993896
2018-12-02T23:13:04.234Z,99.993896
2018-12-02T23:16:32.075Z,99.993896
2018-12-02T23:19:59.928Z,99.993896
2018-12-02T23:23:27.794Z,99.993896
2018-12-02T23:26:55.638Z,99.993896
2018-12-02T23:30:23.502Z,99.993896
2018-12-02T23:33:51.350Z,99.993896
2018-12-02T23:37:20.595Z,99.993896
2018-12-02T23:40:48.047Z,99.993896
2018-12-02T23:44:15.904Z,99.993896
2018-12-02T23:47:43.758Z,99.993896
2018-12-02T23:51:11.602Z,99.993896
2018-12-02T23:54:39.461Z,99.993896
2018-12-02T23:58:07.318Z,99.993896
